Time;durP1;ratioP1;P1;durP2;ratioP2;P2;SDS_P1;SDS_P2;PMS_P1;PMS_P2;Temp;Humidity;BMP_temperature;BMP_pressure;BME280_temperature;BME280_humidity;BME280_pressure;Samples;Min_cycle;Max_cycle;Signal;HPM_P1;HPM_P2
2019/08/21 00:01:07;;;;;;;1.88;1.55;;;;;;;22.45;55.87;101661.52;;;;-50
2019/08/21 00:04:06;;;;;;;2.41;1.60;;;;;;;22.45;55.81;101666.46;;;;-57
2019/08/21 00:07:05;;;;;;;1.57;1.44;;;;;;;22.45;55.79;101661.84;;;;-56
2019/08/21 00:10:05;;;;;;;1.70;1.60;;;;;;;22.45;55.82;101665.12;;;;-52
2019/08/21 00:13:05;;;;;;;1.82;1.53;;;;;;;22.45;55.82;101668.24;;;;-51
2019/08/21 00:16:05;;;;;;;1.69;1.55;;;;;;;22.44;55.89;101667.85;;;;-50
2019/08/21 00:19:05;;;;;;;1.60;1.50;;;;;;;22.44;55.85;101664.83;;;;-56
2019/08/21 00:22:05;;;;;;;2.89;1.58;;;;;;;22.44;55.87;101663.64;;;;-58
2019/08/21 00:25:05;;;;;;;1.68;1.52;;;;;;;22.44;55.87;101667.42;;;;-57
2019/08/21 00:28:43;;;;;;;2.19;1.61;;;;;;;22.43;55.90;101669.83;;;;-57
2019/08/21 00:31:05;;;;;;;1.97;1.59;;;;;;;22.43;55.87;101671.08;;;;-57
2019/08/21 00:34:05;;;;;;;3.43;1.54;;;;;;;22.42;55.83;101668.54;;;;-56
2019/08/21 00:37:05;;;;;;;1.50;1.40;;;;;;;22.43;55.87;101669.48;;;;-57
2019/08/21 00:40:05;;;;;;;1.90;1.60;;;;;;;22.42;55.90;101669.55;;;;-57
2019/08/21 00:43:05;;;;;;;3.28;1.65;;;;;;;22.42;55.91;101671.19;;;;-57
2019/08/21 00:46:05;;;;;;;2.46;1.51;;;;;;;22.42;55.94;101670.78;;;;-51
2019/08/21 00:49:05;;;;;;;1.68;1.51;;;;;;;22.41;55.94;101671.85;;;;-52
2019/08/21 00:52:05;;;;;;;2.07;1.52;;;;;;;22.41;55.89;101669.80;;;;-56
2019/08/21 00:55:05;;;;;;;1.91;1.63;;;;;;;22.41;55.97;101671.52;;;;-56
2019/08/21 00:58:05;;;;;;;2.24;1.57;;;;;;;22.40;55.95;101671.13;;;;-51
2019/08/21 01:01:05;;;;;;;1.84;1.50;;;;;;;22.40;55.95;101678.94;;;;-57
2019/08/21 01:04:05;;;;;;;2.06;1.56;;;;;;;22.40;55.95;101682.91;;;;-57
2019/08/21 01:07:05;;;;;;;1.63;1.51;;;;;;;22.40;55.93;101680.55;;;;-56
2019/08/21 01:10:05;;;;;;;2.02;1.66;;;;;;;22.40;55.95;101681.36;;;;-50
2019/08/21 01:13:05;;;;;;;2.59;1.50;;;;;;;22.39;55.95;101683.26;;;;-57
2019/08/21 01:16:05;;;;;;;2.19;1.60;;;;;;;22.40;55.97;101685.16;;;;-56
2019/08/21 01:19:05;;;;;;;1.93;1.50;;;;;;;22.39;56.00;101687.58;;;;-50
2019/08/21 01:22:05;;;;;;;1.77;1.41;;;;;;;22.39;55.95;101685.61;;;;-56
2019/08/21 01:25:05;;;;;;;2.07;1.67;;;;;;;22.39;56.01;101689.81;;;;-51
2019/08/21 01:28:05;;;;;;;2.26;1.61;;;;;;;22.39;56.02;101695.20;;;;-57
2019/08/21 01:31:05;;;;;;;1.64;1.54;;;;;;;22.39;55.98;101695.78;;;;-57
2019/08/21 01:34:05;;;;;;;1.66;1.50;;;;;;;22.39;56.02;101699.31;;;;-57
2019/08/21 01:37:05;;;;;;;2.01;1.45;;;;;;;22.38;55.98;101697.63;;;;-51
2019/08/21 01:40:05;;;;;;;1.71;1.60;;;;;;;22.38;55.97;101700.20;;;;-51
2019/08/21 01:43:05;;;;;;;2.33;1.63;;;;;;;22.38;56.01;101701.37;;;;-56
2019/08/21 01:46:05;;;;;;;1.70;1.50;;;;;;;22.37;56.01;101700.27;;;;-57
2019/08/21 01:49:05;;;;;;;1.61;1.51;;;;;;;22.37;56.04;101697.63;;;;-51
2019/08/21 01:52:05;;;;;;;1.58;1.48;;;;;;;22.37;56.07;101703.19;;;;-57
2019/08/21 01:55:05;;;;;;;1.60;1.50;;;;;;;22.37;56.04;101701.84;;;;-50
2019/08/21 01:58:05;;;;;;;2.03;1.50;;;;;;;22.37;56.08;101704.30;;;;-51
2019/08/21 02:01:05;;;;;;;1.89;1.73;;;;;;;22.37;56.05;101705.70;;;;-56
2019/08/21 02:04:05;;;;;;;1.80;1.63;;;;;;;22.36;56.04;101709.02;;;;-52
2019/08/21 02:07:05;;;;;;;1.71;1.61;;;;;;;22.36;56.02;101709.53;;;;-51
2019/08/21 02:10:05;;;;;;;2.20;1.66;;;;;;;22.36;56.10;101710.80;;;;-58
2019/08/21 02:13:05;;;;;;;2.09;1.63;;;;;;;22.36;56.09;101714.17;;;;-59
2019/08/21 02:16:05;;;;;;;2.26;1.61;;;;;;;22.35;56.11;101714.47;;;;-58
2019/08/21 02:19:06;;;;;;;1.69;1.59;;;;;;;22.35;56.09;101716.98;;;;-58
2019/08/21 02:22:11;;;;;;;1.68;1.53;;;;;;;22.36;56.04;101714.58;;;;-58
2019/08/21 02:25:05;;;;;;;1.89;1.57;;;;;;;22.35;56.07;101718.34;;;;-58
2019/08/21 02:28:05;;;;;;;1.87;1.69;;;;;;;22.36;56.11;101718.11;;;;-58
2019/08/21 02:31:05;;;;;;;1.70;1.51;;;;;;;22.35;56.10;101714.97;;;;-58
2019/08/21 02:34:05;;;;;;;1.70;1.60;;;;;;;22.34;56.13;101715.48;;;;-58
2019/08/21 02:37:06;;;;;;;1.68;1.58;;;;;;;22.34;56.13;101718.28;;;;-58
2019/08/21 02:40:05;;;;;;;1.82;1.67;;;;;;;22.35;56.12;101722.53;;;;-58
2019/08/21 02:43:05;;;;;;;1.87;1.61;;;;;;;22.34;56.08;101719.31;;;;-58
2019/08/21 02:46:05;;;;;;;1.70;1.60;;;;;;;22.34;56.10;101719.98;;;;-58
2019/08/21 02:49:05;;;;;;;1.80;1.65;;;;;;;22.33;56.10;101718.53;;;;-58
2019/08/21 02:52:05;;;;;;;2.13;1.62;;;;;;;22.33;56.13;101715.16;;;;-59
2019/08/21 02:55:05;;;;;;;1.98;1.72;;;;;;;22.34;56.13;101713.36;;;;-57
2019/08/21 02:58:05;;;;;;;1.88;1.73;;;;;;;22.34;56.12;101711.06;;;;-58
2019/08/21 03:01:05;;;;;;;1.89;1.60;;;;;;;22.34;56.18;101712.63;;;;-58
2019/08/21 03:04:06;;;;;;;1.53;1.43;;;;;;;22.33;56.13;101709.60;;;;-58
2019/08/21 03:07:05;;;;;;;1.71;1.60;;;;;;;22.33;56.09;101711.52;;;;-58
2019/08/21 03:10:05;;;;;;;2.08;1.85;;;;;;;22.33;56.17;101719.42;;;;-58
2019/08/21 03:13:06;;;;;;;1.83;1.69;;;;;;;22.33;56.16;101720.45;;;;-52
2019/08/21 03:16:05;;;;;;;1.70;1.60;;;;;;;22.32;56.18;101716.69;;;;-52
2019/08/21 03:19:05;;;;;;;1.73;1.61;;;;;;;22.32;56.20;101719.16;;;;-53
2019/08/21 03:22:05;;;;;;;2.01;1.80;;;;;;;22.32;56.15;101722.23;;;;-52
2019/08/21 03:25:05;;;;;;;1.91;1.65;;;;;;;22.32;56.16;101723.92;;;;-51
2019/08/21 03:28:05;;;;;;;1.94;1.74;;;;;;;22.32;56.12;101727.30;;;;-51
2019/08/21 03:31:05;;;;;;;1.79;1.67;;;;;;;22.32;56.17;101728.30;;;;-52
2019/08/21 03:34:05;;;;;;;1.89;1.74;;;;;;;22.32;56.16;101732.11;;;;-50
2019/08/21 03:37:05;;;;;;;1.70;1.60;;;;;;;22.31;56.13;101728.52;;;;-50
2019/08/21 03:40:05;;;;;;;1.75;1.63;;;;;;;22.31;56.15;101731.22;;;;-50
2019/08/21 03:43:05;;;;;;;3.02;1.76;;;;;;;22.30;56.22;101729.65;;;;-51
2019/08/21 03:46:05;;;;;;;1.81;1.71;;;;;;;22.31;56.20;101732.39;;;;-56
2019/08/21 03:49:05;;;;;;;1.81;1.71;;;;;;;22.31;56.12;101736.42;;;;-50
2019/08/21 03:52:05;;;;;;;1.81;1.71;;;;;;;22.31;56.18;101739.45;;;;-57
2019/08/21 03:55:05;;;;;;;1.64;1.54;;;;;;;22.30;56.19;101742.60;;;;-56
2019/08/21 03:58:05;;;;;;;1.77;1.67;;;;;;;22.30;56.19;101748.77;;;;-52
2019/08/21 04:01:05;;;;;;;1.69;1.59;;;;;;;22.30;56.19;101750.28;;;;-52
2019/08/21 04:04:05;;;;;;;1.89;1.77;;;;;;;22.30;56.25;101750.11;;;;-58
2019/08/21 04:07:05;;;;;;;1.69;1.59;;;;;;;22.30;56.19;101753.55;;;;-59
2019/08/21 04:10:05;;;;;;;2.01;1.79;;;;;;;22.30;56.25;101762.14;;;;-58
2019/08/21 04:13:05;;;;;;;1.80;1.65;;;;;;;22.30;56.21;101760.17;;;;-59
2019/08/21 04:16:05;;;;;;;1.80;1.70;;;;;;;22.29;56.29;101759.27;;;;-58
2019/08/21 04:19:05;;;;;;;2.46;1.77;;;;;;;22.31;56.19;101766.89;;;;-58
2019/08/21 04:22:05;;;;;;;1.93;1.71;;;;;;;22.30;56.19;101766.33;;;;-58
2019/08/21 04:25:05;;;;;;;1.71;1.61;;;;;;;22.29;56.27;101766.72;;;;-58
2019/08/21 04:28:05;;;;;;;5.60;4.43;;;;;;;22.08;54.83;101767.03;;;;-56
2019/08/21 04:31:05;;;;;;;6.98;5.14;;;;;;;21.91;54.16;101766.20;;;;-57
2019/08/21 04:34:05;;;;;;;7.88;5.37;;;;;;;21.73;54.41;101770.73;;;;-56
2019/08/21 04:37:05;;;;;;;8.71;5.45;;;;;;;21.58;54.56;101772.31;;;;-57
2019/08/21 04:40:05;;;;;;;8.25;5.35;;;;;;;21.45;54.77;101770.72;;;;-57
2019/08/21 04:43:05;;;;;;;6.93;5.58;;;;;;;21.33;55.11;101771.48;;;;-51
2019/08/21 04:46:05;;;;;;;7.18;5.99;;;;;;;21.28;55.08;101773.94;;;;-57
2019/08/21 04:49:05;;;;;;;8.27;6.43;;;;;;;21.20;55.31;101769.03;;;;-51
2019/08/21 04:52:05;;;;;;;9.73;6.75;;;;;;;21.08;55.38;101769.50;;;;-52
2019/08/21 04:55:05;;;;;;;8.09;7.12;;;;;;;21.02;55.44;101770.98;;;;-51
2019/08/21 04:58:05;;;;;;;8.88;6.95;;;;;;;20.93;55.70;101768.50;;;;-52
2019/08/21 05:01:05;;;;;;;12.19;7.03;;;;;;;20.89;55.78;101771.83;;;;-52
2019/08/21 05:04:05;;;;;;;9.81;7.88;;;;;;;20.71;55.91;101772.55;;;;-52
2019/08/21 05:07:05;;;;;;;9.88;7.18;;;;;;;20.67;56.06;101775.71;;;;-51
2019/08/21 05:10:05;;;;;;;9.47;7.14;;;;;;;20.53;56.45;101772.33;;;;-58
2019/08/21 05:13:05;;;;;;;9.94;7.30;;;;;;;20.50;56.48;101774.33;;;;-58
2019/08/21 05:16:05;;;;;;;10.92;7.77;;;;;;;20.35;56.92;101775.81;;;;-59
2019/08/21 05:19:06;;;;;;;10.55;7.51;;;;;;;20.33;56.93;101778.71;;;;-57
2019/08/21 05:22:05;;;;;;;9.34;7.50;;;;;;;20.24;57.26;101779.36;;;;-58
2019/08/21 05:25:05;;;;;;;10.97;8.23;;;;;;;20.22;57.37;101774.60;;;;-58
2019/08/21 05:28:05;;;;;;;10.12;7.11;;;;;;;20.28;57.40;101774.08;;;;-58
2019/08/21 05:31:05;;;;;;;7.49;6.49;;;;;;;20.35;57.45;101778.98;;;;-54
2019/08/21 05:34:06;;;;;;;8.72;6.64;;;;;;;20.43;57.39;101776.58;;;;-54
2019/08/21 05:37:05;;;;;;;8.79;6.37;;;;;;;20.46;57.31;101776.65;;;;-50
2019/08/21 05:40:05;;;;;;;10.59;7.80;;;;;;;20.31;57.50;101777.75;;;;-59
2019/08/21 05:43:05;;;;;;;9.99;8.04;;;;;;;20.18;57.83;101779.87;;;;-52
2019/08/21 05:46:05;;;;;;;9.92;7.95;;;;;;;20.17;57.80;101784.80;;;;-52
2019/08/21 05:49:05;;;;;;;10.06;8.10;;;;;;;20.16;57.99;101786.53;;;;-59
2019/08/21 05:52:05;;;;;;;10.89;8.23;;;;;;;20.05;58.43;101790.50;;;;-59
2019/08/21 05:55:05;;;;;;;11.11;7.73;;;;;;;20.13;58.41;101789.63;;;;-59
2019/08/21 05:58:05;;;;;;;10.91;7.27;;;;;;;20.21;58.24;101789.52;;;;-59
2019/08/21 06:01:05;;;;;;;9.12;7.31;;;;;;;20.27;58.18;101796.39;;;;-51
2019/08/21 06:04:05;;;;;;;10.35;7.11;;;;;;;20.33;58.07;101799.29;;;;-52
2019/08/21 06:07:05;;;;;;;9.09;6.44;;;;;;;20.40;57.92;101807.34;;;;-59
2019/08/21 06:10:05;;;;;;;9.61;6.53;;;;;;;20.45;57.84;101807.25;;;;-59
2019/08/21 06:13:05;;;;;;;7.83;5.93;;;;;;;20.50;57.67;101803.31;;;;-53
2019/08/21 06:16:05;;;;;;;9.32;5.87;;;;;;;20.54;57.70;101805.08;;;;-59
2019/08/21 06:19:06;;;;;;;7.31;5.91;;;;;;;20.57;57.62;101809.47;;;;-52
2019/08/21 06:22:05;;;;;;;7.36;6.37;;;;;;;20.60;57.57;101811.15;;;;-59
2019/08/21 06:25:05;;;;;;;8.95;6.07;;;;;;;20.63;57.50;101809.88;;;;-59
2019/08/21 06:28:05;;;;;;;8.01;5.92;;;;;;;20.66;57.52;101814.55;;;;-59
2019/08/21 06:31:05;;;;;;;6.93;5.54;;;;;;;20.70;57.43;101814.19;;;;-58
2019/08/21 06:34:05;;;;;;;9.01;5.69;;;;;;;20.73;57.42;101813.25;;;;-58
2019/08/21 06:37:05;;;;;;;6.45;5.49;;;;;;;20.75;57.44;101812.03;;;;-59
2019/08/21 06:40:05;;;;;;;6.53;5.47;;;;;;;20.76;57.42;101806.81;;;;-59
2019/08/21 06:43:05;;;;;;;7.07;5.45;;;;;;;20.79;57.35;101808.41;;;;-53
2019/08/21 06:46:05;;;;;;;8.38;5.43;;;;;;;20.79;57.40;101810.14;;;;-59
2019/08/21 06:49:05;;;;;;;6.75;5.13;;;;;;;20.81;57.41;101812.49;;;;-52
2019/08/21 06:52:05;;;;;;;6.19;5.19;;;;;;;20.83;57.32;101812.11;;;;-52
2019/08/21 06:55:05;;;;;;;5.90;4.81;;;;;;;20.83;57.30;101817.09;;;;-52
2019/08/21 06:58:05;;;;;;;7.72;4.87;;;;;;;20.84;57.29;101815.52;;;;-52
2019/08/21 07:01:05;;;;;;;9.31;4.93;;;;;;;20.87;57.29;101815.88;;;;-50
2019/08/21 07:04:05;;;;;;;7.53;6.07;;;;;;;20.80;57.34;101815.22;;;;-50
2019/08/21 07:07:05;;;;;;;9.63;6.15;;;;;;;20.74;57.51;101809.45;;;;-59
2019/08/21 07:10:05;;;;;;;12.29;6.83;;;;;;;20.69;57.29;101804.82;;;;-58
2019/08/21 07:13:05;;;;;;;10.64;6.19;;;;;;;20.71;57.68;101808.19;;;;-53
2019/08/21 07:16:06;;;;;;;8.76;6.35;;;;;;;20.68;57.87;101805.66;;;;-50
2019/08/21 07:19:05;;;;;;;11.47;5.73;;;;;;;20.75;57.74;101803.81;;;;-52
2019/08/21 07:22:05;;;;;;;7.54;5.51;;;;;;;20.77;57.70;101802.30;;;;-54
2019/08/21 07:25:05;;;;;;;7.07;5.26;;;;;;;20.81;57.49;101799.00;;;;-49
2019/08/21 07:28:05;;;;;;;6.45;4.51;;;;;;;20.87;57.52;101799.80;;;;-59
2019/08/21 07:31:05;;;;;;;5.55;4.21;;;;;;;20.91;57.34;101801.46;;;;-58
2019/08/21 07:34:05;;;;;;;7.01;4.27;;;;;;;20.95;57.27;101804.16;;;;-59
2019/08/21 07:37:05;;;;;;;7.15;4.01;;;;;;;20.98;57.18;101802.22;;;;-59
2019/08/21 07:40:05;;;;;;;5.59;3.87;;;;;;;21.02;57.13;101802.52;;;;-50
2019/08/21 07:43:05;;;;;;;6.58;3.72;;;;;;;21.04;57.14;101800.51;;;;-50
2019/08/21 07:46:05;;;;;;;4.62;3.39;;;;;;;21.07;57.08;101800.19;;;;-50
2019/08/21 07:49:05;;;;;;;4.14;3.24;;;;;;;21.09;56.97;101796.27;;;;-51
2019/08/21 07:52:05;;;;;;;4.79;3.30;;;;;;;21.10;56.90;101800.34;;;;-49
2019/08/21 07:55:05;;;;;;;5.54;3.22;;;;;;;21.12;56.91;101801.77;;;;-50
2019/08/21 07:58:05;;;;;;;7.13;3.30;;;;;;;21.13;56.89;101799.64;;;;-49
2019/08/21 08:01:05;;;;;;;4.65;3.06;;;;;;;21.15;56.85;101796.40;;;;-58
2019/08/21 08:04:05;;;;;;;7.09;3.21;;;;;;;21.17;56.80;101798.93;;;;-50
2019/08/21 08:07:05;;;;;;;4.72;3.25;;;;;;;21.18;56.89;101796.13;;;;-51
2019/08/21 08:10:48;;;;;;;3.69;2.88;;;;;;;21.20;56.76;101796.08;;;;-50
2019/08/21 08:13:05;;;;;;;5.13;2.85;;;;;;;21.20;56.77;101798.61;;;;-58
2019/08/21 08:16:05;;;;;;;5.17;2.95;;;;;;;21.22;56.75;101799.84;;;;-50
2019/08/21 08:19:05;;;;;;;6.01;3.05;;;;;;;21.22;56.75;101800.35;;;;-57
2019/08/21 08:22:05;;;;;;;3.97;2.65;;;;;;;21.24;56.70;101804.17;;;;-56
2019/08/21 08:25:05;;;;;;;4.18;2.88;;;;;;;21.26;56.66;101800.13;;;;-50
2019/08/21 08:28:05;;;;;;;3.65;2.64;;;;;;;21.25;56.74;101792.13;;;;-57
2019/08/21 08:31:05;;;;;;;3.71;2.77;;;;;;;21.26;56.67;101793.02;;;;-57
2019/08/21 08:34:05;;;;;;;3.41;2.79;;;;;;;21.27;56.70;101793.03;;;;-50
2019/08/21 08:37:05;;;;;;;4.25;2.81;;;;;;;21.28;56.66;101793.31;;;;-58
2019/08/21 08:40:05;;;;;;;3.77;2.59;;;;;;;21.29;56.63;101783.91;;;;-51
2019/08/21 08:43:05;;;;;;;3.23;2.67;;;;;;;21.29;56.72;101782.95;;;;-58
2019/08/21 08:46:05;;;;;;;4.21;2.74;;;;;;;21.31;56.62;101784.23;;;;-57
2019/08/21 08:49:05;;;;;;;3.19;2.55;;;;;;;21.31;56.64;101782.95;;;;-57
2019/08/21 08:52:05;;;;;;;2.77;2.53;;;;;;;21.32;56.73;101783.86;;;;-57
2019/08/21 08:55:05;;;;;;;3.31;2.57;;;;;;;21.33;56.67;101778.47;;;;-49
2019/08/21 08:58:05;;;;;;;3.09;2.79;;;;;;;21.34;56.69;101778.32;;;;-49
2019/08/21 09:01:05;;;;;;;2.99;2.51;;;;;;;21.34;56.63;101770.02;;;;-55
2019/08/21 09:04:05;;;;;;;2.94;2.57;;;;;;;21.35;56.71;101768.51;;;;-49
2019/08/21 09:07:05;;;;;;;3.05;2.58;;;;;;;21.36;56.65;101767.17;;;;-57
2019/08/21 09:10:05;;;;;;;3.44;2.59;;;;;;;21.37;56.69;101770.26;;;;-49
2019/08/21 09:13:05;;;;;;;2.79;2.51;;;;;;;21.38;56.70;101775.80;;;;-49
2019/08/21 09:16:05;;;;;;;3.04;2.49;;;;;;;21.38;56.58;101772.61;;;;-50
2019/08/21 09:19:05;;;;;;;2.69;2.47;;;;;;;21.39;56.62;101767.18;;;;-57
2019/08/21 09:22:05;;;;;;;3.11;2.41;;;;;;;21.40;56.58;101767.23;;;;-57
2019/08/21 09:25:05;;;;;;;2.48;2.28;;;;;;;21.40;56.58;101768.86;;;;-49
2019/08/21 09:28:05;;;;;;;3.22;2.51;;;;;;;21.41;56.69;101769.81;;;;-49
2019/08/21 09:31:05;;;;;;;2.75;2.55;;;;;;;21.41;56.67;101769.75;;;;-57
2019/08/21 09:34:05;;;;;;;4.29;2.31;;;;;;;21.41;56.55;101763.70;;;;-50
2019/08/21 09:37:05;;;;;;;2.59;2.35;;;;;;;21.42;56.55;101763.70;;;;-58
2019/08/21 09:40:05;;;;;;;2.71;2.41;;;;;;;21.43;56.58;101765.50;;;;-58
2019/08/21 09:43:05;;;;;;;2.99;2.21;;;;;;;21.44;56.64;101763.16;;;;-58
2019/08/21 09:46:05;;;;;;;2.45;2.25;;;;;;;21.44;56.61;101760.91;;;;-57
2019/08/21 09:49:05;;;;;;;2.69;2.44;;;;;;;21.44;56.60;101757.73;;;;-50
2019/08/21 09:52:05;;;;;;;2.69;2.30;;;;;;;21.45;56.62;101758.45;;;;-57
2019/08/21 09:55:05;;;;;;;2.40;2.20;;;;;;;21.46;56.62;101747.75;;;;-58
2019/08/21 09:58:05;;;;;;;2.45;2.25;;;;;;;21.46;56.67;101751.63;;;;-58
2019/08/21 10:01:05;;;;;;;2.73;2.43;;;;;;;21.47;56.56;101748.70;;;;-58
2019/08/21 10:04:05;;;;;;;2.49;2.29;;;;;;;21.47;56.62;101746.73;;;;-50
2019/08/21 10:07:05;;;;;;;2.85;2.18;;;;;;;21.47;56.67;101741.86;;;;-51
2019/08/21 10:10:05;;;;;;;3.71;2.37;;;;;;;21.50;56.60;101744.39;;;;-51
2019/08/21 10:13:05;;;;;;;3.39;2.31;;;;;;;21.54;56.67;101741.64;;;;-49
2019/08/21 10:16:05;;;;;;;2.54;2.13;;;;;;;21.54;56.53;101738.23;;;;-49
2019/08/21 10:19:05;;;;;;;4.19;2.33;;;;;;;21.58;56.68;101736.64;;;;-48
2019/08/21 10:22:05;;;;;;;2.49;2.29;;;;;;;21.61;56.70;101736.81;;;;-49
2019/08/21 10:25:05;;;;;;;3.11;2.20;;;;;;;21.64;56.79;101730.27;;;;-51
2019/08/21 10:28:05;;;;;;;2.97;2.30;;;;;;;21.67;56.83;101727.58;;;;-49
2019/08/21 10:31:05;;;;;;;3.17;2.43;;;;;;;21.69;56.80;101725.28;;;;-51
2019/08/21 10:34:05;;;;;;;4.69;2.43;;;;;;;21.71;56.89;101728.52;;;;-53
2019/08/21 10:37:05;;;;;;;2.49;2.15;;;;;;;21.74;56.79;101725.45;;;;-51
2019/08/21 10:40:05;;;;;;;2.46;2.11;;;;;;;21.76;56.71;101719.61;;;;-51
2019/08/21 10:43:05;;;;;;;3.34;2.18;;;;;;;21.77;56.76;101721.52;;;;-52
2019/08/21 10:46:05;;;;;;;3.51;2.52;;;;;;;21.79;56.76;101718.09;;;;-53
2019/08/21 10:49:05;;;;;;;4.20;2.40;;;;;;;21.79;56.72;101711.70;;;;-52
2019/08/21 10:52:05;;;;;;;3.02;2.31;;;;;;;21.80;56.72;101717.98;;;;-53
2019/08/21 10:55:05;;;;;;;2.95;2.25;;;;;;;21.80;56.64;101710.31;;;;-52
2019/08/21 10:58:05;;;;;;;2.51;2.13;;;;;;;21.80;56.65;101706.88;;;;-52
2019/08/21 11:01:05;;;;;;;3.13;2.17;;;;;;;21.81;56.56;101704.14;;;;-52
2019/08/21 11:04:05;;;;;;;2.69;2.22;;;;;;;21.81;56.60;101702.64;;;;-52
2019/08/21 11:07:05;;;;;;;2.28;2.03;;;;;;;21.81;56.51;101696.52;;;;-52
2019/08/21 11:10:05;;;;;;;3.66;2.31;;;;;;;21.82;56.53;101698.99;;;;-53
2019/08/21 11:13:05;;;;;;;3.45;2.19;;;;;;;21.83;56.52;101691.97;;;;-52
2019/08/21 11:16:05;;;;;;;2.37;2.11;;;;;;;21.83;56.41;101687.27;;;;-52
2019/08/21 11:19:05;;;;;;;3.33;2.12;;;;;;;21.84;56.42;101683.78;;;;-51
2019/08/21 11:22:05;;;;;;;3.54;2.29;;;;;;;21.83;56.51;101678.13;;;;-48
2019/08/21 11:25:05;;;;;;;2.49;2.12;;;;;;;21.87;56.56;101680.66;;;;-46
2019/08/21 11:28:05;;;;;;;2.95;2.30;;;;;;;21.88;56.53;101677.73;;;;-47
2019/08/21 11:31:05;;;;;;;3.63;2.11;;;;;;;21.90;56.60;101676.83;;;;-47
2019/08/21 11:34:05;;;;;;;3.91;2.21;;;;;;;21.93;56.71;101682.16;;;;-50
2019/08/21 11:37:05;;;;;;;2.29;2.02;;;;;;;21.95;56.57;101673.86;;;;-47
2019/08/21 11:40:05;;;;;;;3.15;2.18;;;;;;;21.97;56.56;101673.56;;;;-49
2019/08/21 11:43:05;;;;;;;2.43;2.00;;;;;;;21.98;56.63;101675.76;;;;-52
2019/08/21 11:46:05;;;;;;;2.73;2.10;;;;;;;22.00;56.60;101674.90;;;;-49
2019/08/21 11:49:05;;;;;;;4.99;2.08;;;;;;;22.02;56.57;101673.39;;;;-51
2019/08/21 11:52:05;;;;;;;2.91;2.19;;;;;;;22.03;56.72;101671.44;;;;-50
2019/08/21 11:55:05;;;;;;;2.53;1.91;;;;;;;22.05;56.69;101669.95;;;;-58
2019/08/21 11:58:05;;;;;;;3.68;2.21;;;;;;;22.05;56.64;101668.06;;;;-60
2019/08/21 12:01:05;;;;;;;3.79;2.10;;;;;;;22.06;56.72;101666.53;;;;-57
2019/08/21 12:04:05;;;;;;;6.06;2.19;;;;;;;22.07;56.77;101667.50;;;;-58
2019/08/21 12:07:05;;;;;;;3.07;2.00;;;;;;;22.08;56.72;101654.36;;;;-57
2019/08/21 12:10:05;;;;;;;4.35;2.18;;;;;;;22.10;56.57;101650.26;;;;-53
2019/08/21 12:13:05;;;;;;;13.71;2.48;;;;;;;22.10;56.73;101646.91;;;;-57
2019/08/21 12:16:05;;;;;;;4.87;2.15;;;;;;;22.12;56.63;101646.33;;;;-58
2019/08/21 12:19:05;;;;;;;3.87;2.37;;;;;;;22.13;56.69;101641.67;;;;-58
2019/08/21 12:22:05;;;;;;;4.18;2.01;;;;;;;22.14;56.59;101638.47;;;;-57
2019/08/21 12:25:05;;;;;;;3.33;2.31;;;;;;;22.15;56.56;101637.01;;;;-56
2019/08/21 12:28:05;;;;;;;3.73;2.06;;;;;;;22.17;56.59;101633.08;;;;-57
2019/08/21 12:31:05;;;;;;;2.64;2.07;;;;;;;22.18;56.51;101631.50;;;;-59
2019/08/21 12:34:05;;;;;;;3.91;2.15;;;;;;;22.19;56.62;101633.81;;;;-59
2019/08/21 12:37:05;;;;;;;3.50;2.17;;;;;;;22.20;56.69;101631.73;;;;-56
2019/08/21 12:40:05;;;;;;;6.75;2.09;;;;;;;22.20;56.66;101624.65;;;;-56
2019/08/21 12:43:05;;;;;;;4.04;2.03;;;;;;;22.22;56.63;101624.31;;;;-57
2019/08/21 12:46:05;;;;;;;3.41;2.07;;;;;;;22.23;56.66;101616.58;;;;-57
2019/08/21 12:49:05;;;;;;;3.65;2.13;;;;;;;22.23;56.61;101614.33;;;;-61
2019/08/21 12:52:05;;;;;;;3.41;2.15;;;;;;;22.23;56.54;101609.45;;;;-56
2019/08/21 12:55:05;;;;;;;4.03;1.95;;;;;;;22.24;56.38;101608.89;;;;-58
2019/08/21 12:58:05;;;;;;;4.97;2.10;;;;;;;22.24;56.62;101616.39;;;;-59
2019/08/21 13:01:05;;;;;;;2.79;2.19;;;;;;;22.23;56.51;101608.11;;;;-59
2019/08/21 13:04:05;;;;;;;4.44;2.12;;;;;;;22.23;56.52;101611.64;;;;-59
2019/08/21 13:07:05;;;;;;;2.89;2.02;;;;;;;22.23;56.44;101607.42;;;;-59
2019/08/21 13:10:05;;;;;;;3.13;2.17;;;;;;;22.22;56.49;101609.00;;;;-59
2019/08/21 13:13:05;;;;;;;4.68;2.19;;;;;;;22.23;56.40;101610.90;;;;-59
2019/08/21 13:16:05;;;;;;;2.55;1.93;;;;;;;22.22;56.36;101607.04;;;;-59
2019/08/21 13:19:05;;;;;;;3.30;2.10;;;;;;;22.22;56.31;101605.75;;;;-59
2019/08/21 13:22:05;;;;;;;2.13;1.93;;;;;;;22.21;56.27;101598.17;;;;-59
2019/08/21 13:25:05;;;;;;;2.45;1.92;;;;;;;22.21;56.31;101596.55;;;;-59
2019/08/21 13:28:05;;;;;;;4.61;2.17;;;;;;;22.20;56.45;101594.59;;;;-52
2019/08/21 13:31:05;;;;;;;3.20;2.03;;;;;;;22.21;56.41;101595.25;;;;-52
2019/08/21 13:34:05;;;;;;;2.43;1.71;;;;;;;22.22;56.40;101583.66;;;;-50
2019/08/21 13:37:05;;;;;;;3.18;2.00;;;;;;;22.24;56.35;101584.66;;;;-49
2019/08/21 13:40:05;;;;;;;6.48;2.19;;;;;;;22.25;56.51;101577.63;;;;-52
2019/08/21 13:43:05;;;;;;;11.97;2.56;;;;;;;22.27;56.51;101573.64;;;;-51
2019/08/21 13:46:05;;;;;;;6.61;2.21;;;;;;;22.28;56.56;101569.31;;;;-49
2019/08/21 13:49:05;;;;;;;6.07;2.21;;;;;;;22.29;56.65;101565.84;;;;-50
2019/08/21 13:52:05;;;;;;;7.43;2.63;;;;;;;22.31;56.67;101570.48;;;;-50
2019/08/21 13:55:05;;;;;;;6.54;1.92;;;;;;;22.33;56.69;101565.76;;;;-49
2019/08/21 13:58:05;;;;;;;4.70;2.18;;;;;;;22.33;56.71;101563.06;;;;-49
2019/08/21 14:01:05;;;;;;;11.51;2.13;;;;;;;22.35;56.75;101562.13;;;;-49
2019/08/21 14:04:05;;;;;;;4.20;2.11;;;;;;;22.36;56.82;101559.05;;;;-49
2019/08/21 14:07:05;;;;;;;5.23;2.16;;;;;;;22.36;56.89;101558.65;;;;-49
2019/08/21 14:10:05;;;;;;;8.10;2.33;;;;;;;22.37;56.93;101551.63;;;;-50
2019/08/21 14:13:05;;;;;;;9.96;2.37;;;;;;;22.39;57.15;101548.42;;;;-51
2019/08/21 14:16:05;;;;;;;14.47;2.44;;;;;;;22.41;57.00;101543.88;;;;-50
2019/08/21 14:19:05;;;;;;;6.65;2.17;;;;;;;22.42;56.88;101544.09;;;;-52
2019/08/21 14:22:05;;;;;;;6.99;2.21;;;;;;;22.43;56.84;101542.90;;;;-51
2019/08/21 14:25:05;;;;;;;6.19;2.34;;;;;;;22.44;56.81;101532.84;;;;-51
2019/08/21 14:28:05;;;;;;;8.25;2.21;;;;;;;22.44;56.85;101535.81;;;;-50
2019/08/21 14:31:05;;;;;;;7.37;2.31;;;;;;;22.46;56.82;101537.99;;;;-50
2019/08/21 14:34:05;;;;;;;6.22;2.35;;;;;;;22.47;56.91;101536.66;;;;-50
2019/08/21 14:37:05;;;;;;;8.65;2.55;;;;;;;22.47;56.89;101537.55;;;;-50
2019/08/21 14:40:05;;;;;;;6.56;2.40;;;;;;;22.47;56.74;101536.81;;;;-53
2019/08/21 14:43:05;;;;;;;6.06;2.04;;;;;;;22.48;56.79;101535.01;;;;-49
2019/08/21 14:46:05;;;;;;;6.28;2.08;;;;;;;22.49;56.75;101535.45;;;;-51
2019/08/21 14:49:05;;;;;;;5.53;1.97;;;;;;;22.49;56.71;101534.00;;;;-52
2019/08/21 14:52:05;;;;;;;8.59;2.19;;;;;;;22.50;56.73;101526.03;;;;-49
2019/08/21 14:55:05;;;;;;;8.05;2.35;;;;;;;22.50;56.77;101523.55;;;;-49
2019/08/21 14:58:05;;;;;;;7.51;2.49;;;;;;;22.51;56.75;101523.56;;;;-51
2019/08/21 15:01:05;;;;;;;4.97;2.00;;;;;;;22.52;56.88;101518.43;;;;-49
2019/08/21 15:04:05;;;;;;;5.45;2.25;;;;;;;22.52;56.82;101520.85;;;;-50
2019/08/21 15:07:05;;;;;;;3.96;2.13;;;;;;;22.53;56.78;101519.61;;;;-50
2019/08/21 15:10:06;;;;;;;3.94;2.03;;;;;;;22.53;56.69;101521.80;;;;-50
2019/08/21 15:13:07;;;;;;;5.62;2.17;;;;;;;22.52;56.74;101517.92;;;;-49
2019/08/21 15:16:05;;;;;;;5.95;2.23;;;;;;;22.53;56.69;101516.06;;;;-51
2019/08/21 15:19:05;;;;;;;6.33;2.31;;;;;;;22.53;56.70;101507.64;;;;-53
2019/08/21 15:22:05;;;;;;;5.13;2.21;;;;;;;22.55;56.67;101512.64;;;;-57
2019/08/21 15:25:05;;;;;;;6.19;2.04;;;;;;;22.54;56.64;101514.16;;;;-58
2019/08/21 15:28:05;;;;;;;9.63;2.31;;;;;;;22.54;56.60;101520.05;;;;-58
2019/08/21 15:31:05;;;;;;;5.77;2.19;;;;;;;22.53;56.65;101519.09;;;;-58
2019/08/21 15:34:05;;;;;;;6.91;2.13;;;;;;;22.54;56.56;101526.57;;;;-58
2019/08/21 15:37:05;;;;;;;6.35;2.19;;;;;;;22.52;56.59;101522.74;;;;-59
2019/08/21 15:40:05;;;;;;;6.69;1.93;;;;;;;22.52;56.63;101522.91;;;;-61
2019/08/21 15:43:05;;;;;;;8.51;2.46;;;;;;;22.53;56.65;101523.97;;;;-62
2019/08/21 15:46:05;;;;;;;6.03;2.05;;;;;;;22.54;56.59;101512.20;;;;-60
2019/08/21 15:49:05;;;;;;;6.86;2.19;;;;;;;22.55;56.58;101515.28;;;;-61
2019/08/21 15:52:05;;;;;;;7.62;2.11;;;;;;;22.57;56.57;101520.77;;;;-57
2019/08/21 15:55:05;;;;;;;4.79;2.11;;;;;;;22.58;56.55;101519.13;;;;-58
2019/08/21 15:58:05;;;;;;;4.30;2.17;;;;;;;22.58;56.62;101516.77;;;;-60
2019/08/21 16:01:05;;;;;;;4.25;2.08;;;;;;;22.58;56.58;101509.03;;;;-52
2019/08/21 16:04:05;;;;;;;3.00;1.93;;;;;;;22.58;56.71;101502.95;;;;-52
2019/08/21 16:07:05;;;;;;;5.65;1.98;;;;;;;22.59;56.57;101502.10;;;;-53
2019/08/21 16:10:05;;;;;;;4.49;1.90;;;;;;;22.60;56.61;101503.45;;;;-49
2019/08/21 16:13:05;;;;;;;5.73;2.04;;;;;;;22.58;56.44;101501.67;;;;-50
2019/08/21 16:16:10;;;;;;;5.19;2.18;;;;;;;22.58;56.62;101501.61;;;;-50
2019/08/21 16:19:05;;;;;;;5.72;2.11;;;;;;;22.57;56.54;101495.52;;;;-49
2019/08/21 16:22:05;;;;;;;5.34;1.93;;;;;;;22.54;56.47;101493.11;;;;-49
2019/08/21 16:25:05;;;;;;;6.29;2.12;;;;;;;22.55;56.50;101496.81;;;;-50
2019/08/21 16:28:05;;;;;;;6.04;2.08;;;;;;;22.54;56.50;101493.11;;;;-49
2019/08/21 16:31:12;;;;;;;4.20;2.08;;;;;;;22.52;56.51;101495.53;;;;-49
2019/08/21 16:34:05;;;;;;;3.05;1.87;;;;;;;22.51;56.55;101496.72;;;;-49
2019/08/21 16:37:05;;;;;;;3.75;1.95;;;;;;;22.50;56.54;101492.41;;;;-49
2019/08/21 16:40:05;;;;;;;4.73;1.87;;;;;;;22.49;56.47;101492.69;;;;-50